sensor_id;sensor_type;location;lat;lon;timestamp;P1;durP1;ratioP1;P2;durP2;ratioP2
38787;SDS011;24536;45.488;12.238;2022-07-29T00:00:39;4.50;;;3.60;;
38787;SDS011;24536;45.488;12.238;2022-07-29T00:03:05;6.28;;;4.43;;
38787;SDS011;24536;45.488;12.238;2022-07-29T00:05:31;6.95;;;4.22;;
38787;SDS011;24536;45.488;12.238;2022-07-29T00:07:57;6.63;;;4.43;;
38787;SDS011;24536;45.488;12.238;2022-07-29T00:10:22;8.65;;;3.67;;
38787;SDS011;24536;45.488;12.238;2022-07-29T00:12:48;7.35;;;4.28;;
38787;SDS011;24536;45.488;12.238;2022-07-29T00:15:14;7.47;;;3.80;;
38787;SDS011;24536;45.488;12.238;2022-07-29T00:17:39;4.55;;;3.60;;
38787;SDS011;24536;45.488;12.238;2022-07-29T00:20:05;4.95;;;3.58;;
38787;SDS011;24536;45.488;12.238;2022-07-29T00:22:32;5.82;;;3.58;;
38787;SDS011;24536;45.488;12.238;2022-07-29T00:24:57;5.20;;;4.10;;
38787;SDS011;24536;45.488;12.238;2022-07-29T00:27:23;5.95;;;3.58;;
38787;SDS011;24536;45.488;12.238;2022-07-29T00:29:49;4.68;;;3.72;;
38787;SDS011;24536;45.488;12.238;2022-07-29T00:32:14;6.47;;;3.63;;
38787;SDS011;24536;45.488;12.238;2022-07-29T00:34:40;3.97;;;3.58;;
38787;SDS011;24536;45.488;12.238;2022-07-29T00:37:25;5.82;;;3.72;;
38787;SDS011;24536;45.488;12.238;2022-07-29T00:39:50;10.48;;;4.50;;
38787;SDS011;24536;45.488;12.238;2022-07-29T00:42:16;7.50;;;4.55;;
38787;SDS011;24536;45.488;12.238;2022-07-29T00:44:42;6.82;;;4.40;;
38787;SDS011;24536;45.488;12.238;2022-07-29T00:47:11;6.55;;;3.72;;
38787;SDS011;24536;45.488;12.238;2022-07-29T00:49:38;5.55;;;3.95;;
38787;SDS011;24536;45.488;12.238;2022-07-29T00:52:05;5.25;;;3.97;;
38787;SDS011;24536;45.488;12.238;2022-07-29T00:54:32;7.82;;;4.00;;
38787;SDS011;24536;45.488;12.238;2022-07-29T00:56:58;4.13;;;2.63;;
38787;SDS011;24536;45.488;12.238;2022-07-29T00:59:28;3.67;;;2.55;;
38787;SDS011;24536;45.488;12.238;2022-07-29T01:01:54;6.85;;;2.58;;
38787;SDS011;24536;45.488;12.238;2022-07-29T01:04:23;3.72;;;2.30;;
38787;SDS011;24536;45.488;12.238;2022-07-29T01:06:49;2.50;;;2.30;;
38787;SDS011;24536;45.488;12.238;2022-07-29T01:09:15;3.30;;;2.50;;
38787;SDS011;24536;45.488;12.238;2022-07-29T01:11:43;2.17;;;1.70;;
38787;SDS011;24536;45.488;12.238;2022-07-29T01:14:11;2.75;;;1.92;;
38787;SDS011;24536;45.488;12.238;2022-07-29T01:16:50;2.50;;;1.55;;
38787;SDS011;24536;45.488;12.238;2022-07-29T01:19:26;3.92;;;2.13;;
38787;SDS011;24536;45.488;12.238;2022-07-29T01:27:38;2.08;;;1.40;;
38787;SDS011;24536;45.488;12.238;2022-07-29T01:30:16;2.03;;;1.27;;
38787;SDS011;24536;45.488;12.238;2022-07-29T01:32:42;3.78;;;1.73;;
38787;SDS011;24536;45.488;12.238;2022-07-29T01:35:20;1.80;;;1.52;;
38787;SDS011;24536;45.488;12.238;2022-07-29T01:38:05;1.77;;;1.63;;
38787;SDS011;24536;45.488;12.238;2022-07-29T01:40:36;3.20;;;1.30;;
38787;SDS011;24536;45.488;12.238;2022-07-29T01:43:11;2.15;;;1.65;;
38787;SDS011;24536;45.488;12.238;2022-07-29T01:45:43;2.42;;;1.58;;
38787;SDS011;24536;45.488;12.238;2022-07-29T01:48:19;1.88;;;1.40;;
38787;SDS011;24536;45.488;12.238;2022-07-29T01:50:53;2.80;;;1.48;;
38787;SDS011;24536;45.488;12.238;2022-07-29T01:53:42;2.78;;;1.98;;
38787;SDS011;24536;45.488;12.238;2022-07-29T01:56:12;1.67;;;1.48;;
38787;SDS011;24536;45.488;12.238;2022-07-29T01:58:41;2.38;;;1.50;;
38787;SDS011;24536;45.488;12.238;2022-07-29T02:01:09;1.98;;;1.58;;
38787;SDS011;24536;45.488;12.238;2022-07-29T02:03:37;4.43;;;1.55;;
38787;SDS011;24536;45.488;12.238;2022-07-29T02:06:04;5.50;;;1.65;;
38787;SDS011;24536;45.488;12.238;2022-07-29T02:08:33;3.47;;;1.77;;
38787;SDS011;24536;45.488;12.238;2022-07-29T02:11:00;2.92;;;1.50;;
38787;SDS011;24536;45.488;12.238;2022-07-29T02:13:28;2.08;;;1.65;;
38787;SDS011;24536;45.488;12.238;2022-07-29T02:15:55;1.50;;;1.35;;
38787;SDS011;24536;45.488;12.238;2022-07-29T02:18:23;2.05;;;1.58;;
38787;SDS011;24536;45.488;12.238;2022-07-29T02:20:53;1.75;;;1.55;;
38787;SDS011;24536;45.488;12.238;2022-07-29T02:23:21;2.97;;;1.55;;
38787;SDS011;24536;45.488;12.238;2022-07-29T02:25:49;2.88;;;1.90;;
38787;SDS011;24536;45.488;12.238;2022-07-29T02:28:17;2.97;;;1.63;;
38787;SDS011;24536;45.488;12.238;2022-07-29T02:30:45;3.45;;;2.00;;
38787;SDS011;24536;45.488;12.238;2022-07-29T02:33:12;2.13;;;1.83;;
38787;SDS011;24536;45.488;12.238;2022-07-29T02:35:40;6.35;;;2.20;;
38787;SDS011;24536;45.488;12.238;2022-07-29T02:38:09;2.13;;;1.92;;
38787;SDS011;24536;45.488;12.238;2022-07-29T02:40:58;3.10;;;2.08;;
38787;SDS011;24536;45.488;12.238;2022-07-29T02:43:26;3.65;;;1.95;;
38787;SDS011;24536;45.488;12.238;2022-07-29T02:45:52;2.92;;;2.20;;
38787;SDS011;24536;45.488;12.238;2022-07-29T02:48:20;3.13;;;2.28;;
38787;SDS011;24536;45.488;12.238;2022-07-29T02:50:55;4.63;;;3.30;;
38787;SDS011;24536;45.488;12.238;2022-07-29T02:53:26;12.00;;;3.30;;
38787;SDS011;24536;45.488;12.238;2022-07-29T02:58:45;5.97;;;2.47;;
38787;SDS011;24536;45.488;12.238;2022-07-29T03:01:15;4.18;;;2.25;;
38787;SDS011;24536;45.488;12.238;2022-07-29T03:03:49;2.55;;;2.25;;
38787;SDS011;24536;45.488;12.238;2022-07-29T03:06:17;3.65;;;2.15;;
38787;SDS011;24536;45.488;12.238;2022-07-29T03:08:44;2.78;;;2.10;;
38787;SDS011;24536;45.488;12.238;2022-07-29T03:11:11;2.35;;;2.00;;
38787;SDS011;24536;45.488;12.238;2022-07-29T03:13:38;2.10;;;1.90;;
38787;SDS011;24536;45.488;12.238;2022-07-29T03:16:05;4.03;;;2.03;;
38787;SDS011;24536;45.488;12.238;2022-07-29T03:18:31;2.05;;;1.50;;
38787;SDS011;24536;45.488;12.238;2022-07-29T03:20:57;3.85;;;2.22;;
38787;SDS011;24536;45.488;12.238;2022-07-29T03:23:23;4.22;;;1.80;;
38787;SDS011;24536;45.488;12.238;2022-07-29T03:25:51;4.35;;;1.88;;
38787;SDS011;24536;45.488;12.238;2022-07-29T03:28:17;3.15;;;2.13;;
38787;SDS011;24536;45.488;12.238;2022-07-29T03:30:43;2.65;;;1.60;;
38787;SDS011;24536;45.488;12.238;2022-07-29T03:33:09;3.45;;;1.65;;
38787;SDS011;24536;45.488;12.238;2022-07-29T03:35:35;4.93;;;2.13;;
38787;SDS011;24536;45.488;12.238;2022-07-29T03:38:00;1.75;;;1.48;;
38787;SDS011;24536;45.488;12.238;2022-07-29T03:40:40;3.00;;;1.83;;
38787;SDS011;24536;45.488;12.238;2022-07-29T03:43:11;2.13;;;1.60;;
38787;SDS011;24536;45.488;12.238;2022-07-29T03:45:41;3.80;;;2.50;;
38787;SDS011;24536;45.488;12.238;2022-07-29T03:48:12;1.90;;;1.63;;
38787;SDS011;24536;45.488;12.238;2022-07-29T03:50:40;2.45;;;2.25;;
38787;SDS011;24536;45.488;12.238;2022-07-29T03:53:06;7.78;;;2.13;;
38787;SDS011;24536;45.488;12.238;2022-07-29T03:55:33;2.08;;;1.73;;
38787;SDS011;24536;45.488;12.238;2022-07-29T03:58:04;2.65;;;2.03;;
38787;SDS011;24536;45.488;12.238;2022-07-29T04:00:31;2.03;;;1.83;;
38787;SDS011;24536;45.488;12.238;2022-07-29T04:02:58;3.00;;;1.92;;
38787;SDS011;24536;45.488;12.238;2022-07-29T04:05:24;2.22;;;1.48;;
38787;SDS011;24536;45.488;12.238;2022-07-29T04:07:50;2.50;;;1.98;;
38787;SDS011;24536;45.488;12.238;2022-07-29T04:10:16;2.47;;;2.17;;
38787;SDS011;24536;45.488;12.238;2022-07-29T04:12:42;3.28;;;2.60;;
38787;SDS011;24536;45.488;12.238;2022-07-29T04:15:08;3.63;;;2.30;;
38787;SDS011;24536;45.488;12.238;2022-07-29T04:17:34;2.25;;;1.80;;
38787;SDS011;24536;45.488;12.238;2022-07-29T04:20:00;3.25;;;2.42;;
38787;SDS011;24536;45.488;12.238;2022-07-29T04:22:26;2.88;;;2.13;;
38787;SDS011;24536;45.488;12.238;2022-07-29T04:24:51;4.63;;;2.20;;
38787;SDS011;24536;45.488;12.238;2022-07-29T04:27:17;4.07;;;2.45;;
38787;SDS011;24536;45.488;12.238;2022-07-29T04:29:43;3.00;;;2.60;;
38787;SDS011;24536;45.488;12.238;2022-07-29T04:32:08;3.75;;;2.60;;
38787;SDS011;24536;45.488;12.238;2022-07-29T04:34:34;2.72;;;2.17;;
38787;SDS011;24536;45.488;12.238;2022-07-29T04:37:00;4.38;;;2.47;;
38787;SDS011;24536;45.488;12.238;2022-07-29T04:39:26;2.97;;;1.90;;
38787;SDS011;24536;45.488;12.238;2022-07-29T04:41:51;2.20;;;2.00;;
38787;SDS011;24536;45.488;12.238;2022-07-29T04:44:17;4.70;;;2.50;;
38787;SDS011;24536;45.488;12.238;2022-07-29T04:46:43;2.30;;;2.10;;
38787;SDS011;24536;45.488;12.238;2022-07-29T04:49:09;2.80;;;2.30;;
38787;SDS011;24536;45.488;12.238;2022-07-29T04:51:35;2.97;;;2.22;;
38787;SDS011;24536;45.488;12.238;2022-07-29T04:54:00;2.47;;;2.15;;
38787;SDS011;24536;45.488;12.238;2022-07-29T04:56:26;3.97;;;2.33;;
38787;SDS011;24536;45.488;12.238;2022-07-29T04:58:52;2.83;;;2.50;;
38787;SDS011;24536;45.488;12.238;2022-07-29T05:01:19;5.72;;;2.67;;
38787;SDS011;24536;45.488;12.238;2022-07-29T05:03:45;4.70;;;2.58;;
38787;SDS011;24536;45.488;12.238;2022-07-29T05:06:11;2.90;;;2.30;;
38787;SDS011;24536;45.488;12.238;2022-07-29T05:08:37;3.83;;;2.60;;
38787;SDS011;24536;45.488;12.238;2022-07-29T05:11:03;2.90;;;2.25;;
38787;SDS011;24536;45.488;12.238;2022-07-29T05:13:29;2.90;;;2.55;;
38787;SDS011;24536;45.488;12.238;2022-07-29T05:15:56;4.25;;;2.47;;
38787;SDS011;24536;45.488;12.238;2022-07-29T05:20:51;5.13;;;2.85;;
38787;SDS011;24536;45.488;12.238;2022-07-29T05:23:16;4.45;;;3.03;;
38787;SDS011;24536;45.488;12.238;2022-07-29T05:25:43;5.75;;;3.13;;
38787;SDS011;24536;45.488;12.238;2022-07-29T05:28:08;5.93;;;2.90;;
38787;SDS011;24536;45.488;12.238;2022-07-29T05:30:35;4.22;;;2.95;;
38787;SDS011;24536;45.488;12.238;2022-07-29T05:33:00;7.20;;;3.67;;
38787;SDS011;24536;45.488;12.238;2022-07-29T05:35:26;4.18;;;2.70;;
38787;SDS011;24536;45.488;12.238;2022-07-29T05:37:52;6.15;;;3.03;;
38787;SDS011;24536;45.488;12.238;2022-07-29T05:40:17;2.40;;;2.10;;
38787;SDS011;24536;45.488;12.238;2022-07-29T05:42:43;7.32;;;3.05;;
38787;SDS011;24536;45.488;12.238;2022-07-29T05:45:09;3.83;;;2.72;;
38787;SDS011;24536;45.488;12.238;2022-07-29T05:47:35;3.55;;;2.78;;
38787;SDS011;24536;45.488;12.238;2022-07-29T05:50:01;5.78;;;3.22;;
38787;SDS011;24536;45.488;12.238;2022-07-29T05:52:26;4.18;;;3.08;;
38787;SDS011;24536;45.488;12.238;2022-07-29T05:54:52;5.43;;;2.92;;
38787;SDS011;24536;45.488;12.238;2022-07-29T05:57:18;10.68;;;4.25;;
38787;SDS011;24536;45.488;12.238;2022-07-29T05:59:47;6.15;;;2.72;;
38787;SDS011;24536;45.488;12.238;2022-07-29T06:02:13;6.13;;;3.00;;
38787;SDS011;24536;45.488;12.238;2022-07-29T06:04:39;3.40;;;3.08;;
38787;SDS011;24536;45.488;12.238;2022-07-29T06:07:05;3.75;;;2.83;;
38787;SDS011;24536;45.488;12.238;2022-07-29T06:09:31;3.55;;;2.70;;
38787;SDS011;24536;45.488;12.238;2022-07-29T06:11:57;3.85;;;3.00;;
38787;SDS011;24536;45.488;12.238;2022-07-29T06:14:23;5.10;;;2.85;;
38787;SDS011;24536;45.488;12.238;2022-07-29T06:16:50;3.90;;;2.72;;
38787;SDS011;24536;45.488;12.238;2022-07-29T06:19:15;3.35;;;2.95;;
38787;SDS011;24536;45.488;12.238;2022-07-29T06:21:44;3.00;;;2.55;;
38787;SDS011;24536;45.488;12.238;2022-07-29T06:24:12;2.80;;;2.50;;
38787;SDS011;24536;45.488;12.238;2022-07-29T06:26:38;4.05;;;2.78;;
38787;SDS011;24536;45.488;12.238;2022-07-29T06:29:05;3.80;;;2.35;;
38787;SDS011;24536;45.488;12.238;2022-07-29T06:31:31;5.28;;;2.67;;
38787;SDS011;24536;45.488;12.238;2022-07-29T06:33:57;5.97;;;2.72;;
38787;SDS011;24536;45.488;12.238;2022-07-29T06:36:26;3.65;;;2.55;;
38787;SDS011;24536;45.488;12.238;2022-07-29T06:38:51;3.85;;;2.70;;
38787;SDS011;24536;45.488;12.238;2022-07-29T06:41:17;4.25;;;2.67;;
38787;SDS011;24536;45.488;12.238;2022-07-29T06:43:44;3.55;;;3.10;;
38787;SDS011;24536;45.488;12.238;2022-07-29T06:46:12;2.47;;;2.13;;
38787;SDS011;24536;45.488;12.238;2022-07-29T06:48:39;5.30;;;2.60;;
38787;SDS011;24536;45.488;12.238;2022-07-29T06:51:14;3.35;;;2.45;;
38787;SDS011;24536;45.488;12.238;2022-07-29T06:53:41;3.92;;;2.28;;
38787;SDS011;24536;45.488;12.238;2022-07-29T06:56:07;3.40;;;2.30;;
38787;SDS011;24536;45.488;12.238;2022-07-29T06:58:37;4.20;;;2.50;;
38787;SDS011;24536;45.488;12.238;2022-07-29T07:01:04;3.88;;;2.22;;
38787;SDS011;24536;45.488;12.238;2022-07-29T07:03:34;5.55;;;2.50;;
38787;SDS011;24536;45.488;12.238;2022-07-29T07:05:59;3.72;;;2.30;;
38787;SDS011;24536;45.488;12.238;2022-07-29T07:08:25;2.70;;;2.22;;
38787;SDS011;24536;45.488;12.238;2022-07-29T07:10:51;52.88;;;47.20;;
38787;SDS011;24536;45.488;12.238;2022-07-29T07:13:17;55.70;;;49.63;;
38787;SDS011;24536;45.488;12.238;2022-07-29T07:15:44;43.17;;;38.67;;
38787;SDS011;24536;45.488;12.238;2022-07-29T07:18:10;14.43;;;12.88;;
38787;SDS011;24536;45.488;12.238;2022-07-29T07:20:36;8.40;;;7.20;;
38787;SDS011;24536;45.488;12.238;2022-07-29T07:23:02;5.15;;;3.40;;
38787;SDS011;24536;45.488;12.238;2022-07-29T07:25:28;4.72;;;2.75;;
38787;SDS011;24536;45.488;12.238;2022-07-29T07:27:54;3.50;;;2.97;;
38787;SDS011;24536;45.488;12.238;2022-07-29T07:30:20;2.70;;;2.47;;
38787;SDS011;24536;45.488;12.238;2022-07-29T07:32:46;2.97;;;2.22;;
38787;SDS011;24536;45.488;12.238;2022-07-29T07:35:11;8.02;;;3.45;;
38787;SDS011;24536;45.488;12.238;2022-07-29T07:37:39;3.17;;;2.22;;
38787;SDS011;24536;45.488;12.238;2022-07-29T07:40:08;3.15;;;2.70;;
38787;SDS011;24536;45.488;12.238;2022-07-29T07:42:36;3.33;;;2.53;;
38787;SDS011;24536;45.488;12.238;2022-07-29T07:45:03;4.28;;;2.92;;
38787;SDS011;24536;45.488;12.238;2022-07-29T07:47:29;6.85;;;3.40;;
38787;SDS011;24536;45.488;12.238;2022-07-29T07:49:56;2.67;;;2.38;;
38787;SDS011;24536;45.488;12.238;2022-07-29T07:52:22;2.70;;;2.40;;
38787;SDS011;24536;45.488;12.238;2022-07-29T07:54:48;5.38;;;3.03;;
38787;SDS011;24536;45.488;12.238;2022-07-29T07:57:14;3.28;;;2.15;;
38787;SDS011;24536;45.488;12.238;2022-07-29T07:59:44;4.88;;;2.83;;
38787;SDS011;24536;45.488;12.238;2022-07-29T08:02:13;2.77;;;2.50;;
38787;SDS011;24536;45.488;12.238;2022-07-29T08:04:38;3.20;;;2.63;;
38787;SDS011;24536;45.488;12.238;2022-07-29T08:07:05;3.17;;;2.40;;
38787;SDS011;24536;45.488;12.238;2022-07-29T08:09:32;6.13;;;2.47;;
38787;SDS011;24536;45.488;12.238;2022-07-29T08:11:59;3.55;;;2.38;;
38787;SDS011;24536;45.488;12.238;2022-07-29T08:14:27;3.88;;;2.67;;
38787;SDS011;24536;45.488;12.238;2022-07-29T08:16:54;4.35;;;3.10;;
38787;SDS011;24536;45.488;12.238;2022-07-29T08:19:23;2.78;;;2.47;;
38787;SDS011;24536;45.488;12.238;2022-07-29T08:21:48;3.13;;;2.75;;
38787;SDS011;24536;45.488;12.238;2022-07-29T08:24:14;7.90;;;2.88;;
38787;SDS011;24536;45.488;12.238;2022-07-29T08:26:59;7.07;;;2.95;;
38787;SDS011;24536;45.488;12.238;2022-07-29T08:29:24;4.15;;;2.83;;
38787;SDS011;24536;45.488;12.238;2022-07-29T08:31:50;3.63;;;2.53;;
38787;SDS011;24536;45.488;12.238;2022-07-29T08:34:16;2.25;;;2.05;;
38787;SDS011;24536;45.488;12.238;2022-07-29T08:36:42;3.67;;;2.70;;
38787;SDS011;24536;45.488;12.238;2022-07-29T08:39:08;4.93;;;2.83;;
38787;SDS011;24536;45.488;12.238;2022-07-29T08:41:34;4.68;;;3.13;;
38787;SDS011;24536;45.488;12.238;2022-07-29T08:44:00;6.25;;;3.28;;
38787;SDS011;24536;45.488;12.238;2022-07-29T08:46:26;3.80;;;2.80;;
38787;SDS011;24536;45.488;12.238;2022-07-29T08:48:51;5.68;;;2.53;;
38787;SDS011;24536;45.488;12.238;2022-07-29T08:51:18;3.22;;;2.35;;
38787;SDS011;24536;45.488;12.238;2022-07-29T08:53:46;3.42;;;2.45;;
38787;SDS011;24536;45.488;12.238;2022-07-29T08:56:13;9.63;;;2.65;;
38787;SDS011;24536;45.488;12.238;2022-07-29T08:58:42;3.80;;;2.25;;
38787;SDS011;24536;45.488;12.238;2022-07-29T09:01:08;3.53;;;2.67;;
38787;SDS011;24536;45.488;12.238;2022-07-29T09:03:36;3.28;;;2.30;;
38787;SDS011;24536;45.488;12.238;2022-07-29T09:06:02;4.90;;;2.78;;
38787;SDS011;24536;45.488;12.238;2022-07-29T09:08:30;4.43;;;2.85;;
38787;SDS011;24536;45.488;12.238;2022-07-29T09:10:57;3.67;;;2.45;;
38787;SDS011;24536;45.488;12.238;2022-07-29T09:13:25;3.38;;;2.30;;
38787;SDS011;24536;45.488;12.238;2022-07-29T09:15:50;3.92;;;2.40;;
38787;SDS011;24536;45.488;12.238;2022-07-29T09:21:13;3.33;;;2.35;;
38787;SDS011;24536;45.488;12.238;2022-07-29T09:26:41;2.10;;;1.90;;
38787;SDS011;24536;45.488;12.238;2022-07-29T09:29:10;4.25;;;2.38;;
38787;SDS011;24536;45.488;12.238;2022-07-29T09:31:38;4.63;;;2.80;;
38787;SDS011;24536;45.488;12.238;2022-07-29T09:34:06;4.20;;;2.40;;
38787;SDS011;24536;45.488;12.238;2022-07-29T09:36:52;2.78;;;2.20;;
38787;SDS011;24536;45.488;12.238;2022-07-29T09:39:37;3.17;;;2.35;;
38787;SDS011;24536;45.488;12.238;2022-07-29T09:42:10;5.50;;;2.70;;
38787;SDS011;24536;45.488;12.238;2022-07-29T09:44:42;4.47;;;2.58;;
38787;SDS011;24536;45.488;12.238;2022-07-29T09:47:16;3.35;;;2.67;;
38787;SDS011;24536;45.488;12.238;2022-07-29T09:49:56;4.18;;;2.22;;
38787;SDS011;24536;45.488;12.238;2022-07-29T09:52:24;4.63;;;2.92;;
38787;SDS011;24536;45.488;12.238;2022-07-29T09:54:50;5.43;;;2.25;;
38787;SDS011;24536;45.488;12.238;2022-07-29T09:59:59;4.20;;;2.95;;
38787;SDS011;24536;45.488;12.238;2022-07-29T10:02:31;6.82;;;4.05;;
38787;SDS011;24536;45.488;12.238;2022-07-29T10:04:58;6.32;;;3.50;;
38787;SDS011;24536;45.488;12.238;2022-07-29T10:07:25;5.65;;;3.20;;
38787;SDS011;24536;45.488;12.238;2022-07-29T10:09:55;8.70;;;3.90;;
38787;SDS011;24536;45.488;12.238;2022-07-29T10:12:23;5.15;;;3.53;;
38787;SDS011;24536;45.488;12.238;2022-07-29T10:14:49;5.53;;;3.50;;
38787;SDS011;24536;45.488;12.238;2022-07-29T10:17:15;6.95;;;3.45;;
38787;SDS011;24536;45.488;12.238;2022-07-29T10:19:42;12.05;;;3.50;;
38787;SDS011;24536;45.488;12.238;2022-07-29T10:22:08;5.82;;;2.92;;
38787;SDS011;24536;45.488;12.238;2022-07-29T10:24:36;6.03;;;3.53;;
38787;SDS011;24536;45.488;12.238;2022-07-29T10:27:04;5.85;;;3.90;;
38787;SDS011;24536;45.488;12.238;2022-07-29T10:29:32;3.63;;;2.90;;
38787;SDS011;24536;45.488;12.238;2022-07-29T10:32:02;4.43;;;3.65;;
38787;SDS011;24536;45.488;12.238;2022-07-29T10:37:19;3.85;;;3.40;;
38787;SDS011;24536;45.488;12.238;2022-07-29T10:43:40;6.63;;;3.63;;
38787;SDS011;24536;45.488;12.238;2022-07-29T10:49:03;6.72;;;3.75;;
38787;SDS011;24536;45.488;12.238;2022-07-29T10:59:39;4.03;;;3.60;;
38787;SDS011;24536;45.488;12.238;2022-07-29T11:05:05;5.85;;;4.03;;
38787;SDS011;24536;45.488;12.238;2022-07-29T11:07:31;4.43;;;3.50;;
38787;SDS011;24536;45.488;12.238;2022-07-29T11:15:08;5.07;;;3.53;;
38787;SDS011;24536;45.488;12.238;2022-07-29T11:23:00;4.75;;;3.85;;
38787;SDS011;24536;45.488;12.238;2022-07-29T11:25:26;3.83;;;2.80;;
38787;SDS011;24536;45.488;12.238;2022-07-29T11:27:52;4.50;;;3.88;;
38787;SDS011;24536;45.488;12.238;2022-07-29T11:30:46;4.85;;;3.40;;
38787;SDS011;24536;45.488;12.238;2022-07-29T11:33:30;7.55;;;4.03;;
38787;SDS011;24536;45.488;12.238;2022-07-29T11:36:13;7.68;;;4.07;;
38787;SDS011;24536;45.488;12.238;2022-07-29T11:38:39;3.85;;;3.50;;
38787;SDS011;24536;45.488;12.238;2022-07-29T11:41:25;6.78;;;4.53;;
38787;SDS011;24536;45.488;12.238;2022-07-29T11:43:52;6.40;;;3.97;;
38787;SDS011;24536;45.488;12.238;2022-07-29T11:49:06;3.45;;;2.97;;
38787;SDS011;24536;45.488;12.238;2022-07-29T11:51:34;4.63;;;3.50;;
38787;SDS011;24536;45.488;12.238;2022-07-29T11:54:01;6.95;;;3.53;;
38787;SDS011;24536;45.488;12.238;2022-07-29T11:56:29;5.25;;;3.25;;
38787;SDS011;24536;45.488;12.238;2022-07-29T11:59:02;4.35;;;2.72;;
38787;SDS011;24536;45.488;12.238;2022-07-29T12:01:31;4.93;;;2.85;;
38787;SDS011;24536;45.488;12.238;2022-07-29T12:04:04;3.75;;;3.03;;
38787;SDS011;24536;45.488;12.238;2022-07-29T12:06:31;3.95;;;3.10;;
38787;SDS011;24536;45.488;12.238;2022-07-29T12:08:58;5.20;;;2.45;;
38787;SDS011;24536;45.488;12.238;2022-07-29T12:11:25;3.13;;;2.60;;
38787;SDS011;24536;45.488;12.238;2022-07-29T12:13:50;5.35;;;3.22;;
38787;SDS011;24536;45.488;12.238;2022-07-29T12:16:17;3.60;;;2.55;;
38787;SDS011;24536;45.488;12.238;2022-07-29T12:18:57;6.50;;;2.15;;
38787;SDS011;24536;45.488;12.238;2022-07-29T12:21:24;4.07;;;3.10;;
38787;SDS011;24536;45.488;12.238;2022-07-29T12:23:54;4.30;;;2.78;;
38787;SDS011;24536;45.488;12.238;2022-07-29T12:26:21;10.70;;;4.10;;
38787;SDS011;24536;45.488;12.238;2022-07-29T12:28:46;3.95;;;2.78;;
38787;SDS011;24536;45.488;12.238;2022-07-29T12:31:13;3.08;;;2.35;;
38787;SDS011;24536;45.488;12.238;2022-07-29T12:33:40;3.63;;;2.72;;
38787;SDS011;24536;45.488;12.238;2022-07-29T12:36:07;6.00;;;2.80;;
38787;SDS011;24536;45.488;12.238;2022-07-29T12:38:34;3.92;;;2.63;;
38787;SDS011;24536;45.488;12.238;2022-07-29T12:41:01;3.00;;;2.50;;
38787;SDS011;24536;45.488;12.238;2022-07-29T12:43:27;3.58;;;2.50;;
38787;SDS011;24536;45.488;12.238;2022-07-29T12:45:53;4.10;;;2.90;;
38787;SDS011;24536;45.488;12.238;2022-07-29T12:48:33;4.22;;;2.40;;
38787;SDS011;24536;45.488;12.238;2022-07-29T12:51:00;6.72;;;2.60;;
38787;SDS011;24536;45.488;12.238;2022-07-29T12:53:27;5.28;;;2.60;;
38787;SDS011;24536;45.488;12.238;2022-07-29T12:55:54;2.50;;;2.25;;
38787;SDS011;24536;45.488;12.238;2022-07-29T12:58:28;6.60;;;3.00;;
38787;SDS011;24536;45.488;12.238;2022-07-29T13:01:00;2.65;;;2.45;;
38787;SDS011;24536;45.488;12.238;2022-07-29T13:09:08;3.00;;;2.42;;
38787;SDS011;24536;45.488;12.238;2022-07-29T13:14:31;5.05;;;3.67;;
38787;SDS011;24536;45.488;12.238;2022-07-29T13:22:05;14.85;;;3.47;;
38787;SDS011;24536;45.488;12.238;2022-07-29T13:24:31;4.82;;;2.72;;
38787;SDS011;24536;45.488;12.238;2022-07-29T13:26:57;7.60;;;2.67;;
38787;SDS011;24536;45.488;12.238;2022-07-29T13:29:24;4.28;;;2.58;;
38787;SDS011;24536;45.488;12.238;2022-07-29T13:31:51;9.35;;;3.03;;
38787;SDS011;24536;45.488;12.238;2022-07-29T13:34:17;6.68;;;2.53;;
38787;SDS011;24536;45.488;12.238;2022-07-29T13:36:44;4.45;;;2.70;;
38787;SDS011;24536;45.488;12.238;2022-07-29T13:39:10;4.10;;;3.03;;
38787;SDS011;24536;45.488;12.238;2022-07-29T13:41:36;2.45;;;2.22;;
38787;SDS011;24536;45.488;12.238;2022-07-29T13:44:02;4.75;;;2.90;;
38787;SDS011;24536;45.488;12.238;2022-07-29T13:46:27;4.25;;;2.90;;
38787;SDS011;24536;45.488;12.238;2022-07-29T13:48:53;4.38;;;2.58;;
38787;SDS011;24536;45.488;12.238;2022-07-29T13:51:19;4.43;;;2.47;;
38787;SDS011;24536;45.488;12.238;2022-07-29T13:53:44;3.83;;;2.92;;
38787;SDS011;24536;45.488;12.238;2022-07-29T13:56:10;3.00;;;2.20;;
38787;SDS011;24536;45.488;12.238;2022-07-29T13:58:36;3.88;;;2.65;;
38787;SDS011;24536;45.488;12.238;2022-07-29T14:01:01;6.32;;;2.80;;
38787;SDS011;24536;45.488;12.238;2022-07-29T14:03:27;3.90;;;2.30;;
38787;SDS011;24536;45.488;12.238;2022-07-29T14:05:53;5.65;;;2.83;;
38787;SDS011;24536;45.488;12.238;2022-07-29T14:08:19;2.75;;;2.40;;
38787;SDS011;24536;45.488;12.238;2022-07-29T14:10:45;5.22;;;2.42;;
38787;SDS011;24536;45.488;12.238;2022-07-29T14:13:10;2.80;;;2.42;;
38787;SDS011;24536;45.488;12.238;2022-07-29T14:15:36;4.30;;;2.40;;
38787;SDS011;24536;45.488;12.238;2022-07-29T14:18:02;3.83;;;2.00;;
38787;SDS011;24536;45.488;12.238;2022-07-29T14:20:27;2.60;;;2.20;;
38787;SDS011;24536;45.488;12.238;2022-07-29T14:22:54;4.20;;;2.75;;
38787;SDS011;24536;45.488;12.238;2022-07-29T14:25:21;3.28;;;2.25;;
38787;SDS011;24536;45.488;12.238;2022-07-29T14:27:47;5.00;;;2.50;;
38787;SDS011;24536;45.488;12.238;2022-07-29T14:30:13;3.55;;;2.35;;
38787;SDS011;24536;45.488;12.238;2022-07-29T14:32:39;3.33;;;2.28;;
38787;SDS011;24536;45.488;12.238;2022-07-29T14:35:05;3.08;;;2.40;;
38787;SDS011;24536;45.488;12.238;2022-07-29T14:37:31;4.00;;;2.28;;
38787;SDS011;24536;45.488;12.238;2022-07-29T14:39:58;4.43;;;2.50;;
38787;SDS011;24536;45.488;12.238;2022-07-29T14:42:28;5.93;;;2.90;;
38787;SDS011;24536;45.488;12.238;2022-07-29T14:44:54;2.80;;;2.50;;
38787;SDS011;24536;45.488;12.238;2022-07-29T14:47:19;3.28;;;2.35;;
38787;SDS011;24536;45.488;12.238;2022-07-29T14:49:46;4.57;;;2.95;;
38787;SDS011;24536;45.488;12.238;2022-07-29T14:52:13;3.55;;;2.53;;
38787;SDS011;24536;45.488;12.238;2022-07-29T14:54:38;3.97;;;2.20;;
38787;SDS011;24536;45.488;12.238;2022-07-29T14:57:04;2.90;;;2.38;;
38787;SDS011;24536;45.488;12.238;2022-07-29T14:59:30;3.35;;;2.17;;
38787;SDS011;24536;45.488;12.238;2022-07-29T15:01:56;3.33;;;2.28;;
38787;SDS011;24536;45.488;12.238;2022-07-29T15:04:21;2.40;;;2.20;;
38787;SDS011;24536;45.488;12.238;2022-07-29T15:06:47;3.03;;;2.05;;
38787;SDS011;24536;45.488;12.238;2022-07-29T15:09:13;3.15;;;2.38;;
38787;SDS011;24536;45.488;12.238;2022-07-29T15:11:39;3.63;;;2.47;;
38787;SDS011;24536;45.488;12.238;2022-07-29T15:14:05;3.95;;;2.03;;
38787;SDS011;24536;45.488;12.238;2022-07-29T15:16:31;3.58;;;2.42;;
38787;SDS011;24536;45.488;12.238;2022-07-29T15:18:57;3.90;;;2.30;;
38787;SDS011;24536;45.488;12.238;2022-07-29T15:21:23;3.72;;;2.70;;
38787;SDS011;24536;45.488;12.238;2022-07-29T15:23:49;5.72;;;2.50;;
38787;SDS011;24536;45.488;12.238;2022-07-29T15:26:15;3.08;;;2.40;;
38787;SDS011;24536;45.488;12.238;2022-07-29T15:28:40;3.78;;;2.53;;
38787;SDS011;24536;45.488;12.238;2022-07-29T15:31:06;3.25;;;2.45;;
38787;SDS011;24536;45.488;12.238;2022-07-29T15:33:32;4.40;;;2.35;;
38787;SDS011;24536;45.488;12.238;2022-07-29T15:35:57;4.07;;;2.75;;
38787;SDS011;24536;45.488;12.238;2022-07-29T15:38:23;5.72;;;2.90;;
38787;SDS011;24536;45.488;12.238;2022-07-29T15:40:49;2.75;;;2.55;;
38787;SDS011;24536;45.488;12.238;2022-07-29T15:43:14;4.13;;;2.85;;